Portada
METAR-TAF:

METAR-TAF

Aeropuertos :

Aeropuerto de Murcia-San Javier

Murcia, España

latitud: 37-47N, longitud: 000-48W, altitud: 5 m

Observación

El informe se hizo hace 17 minutos, a las 19:30 UTC
Viento 2 kt del noroeste
Temperatura 12°C
Humedad 88%
Presión 1018 hPa
Visibilidad 10 km o más
Nubes dispersas a una altura de 2000 ft
Cielo nuboso a una altura de 2600 ft

METAR: LELC 291930Z 31002KT 9999 SCT020 BKN026 12/10 Q1018 NOSIG

Hora: 20:47 (19:47 UTC)

Pronóstico

El informe se hizo hace 2 horas y 47 minutos, a las 17:00 UTC
Pronóstico válido del 29 a las 18 UTC al 30 a las 18 UTC
Viento 5 kt del norte-noreste
Visibilidad 10 km o más
Nubes dispersas a una altura de 4000 ft

TAF: LELC 291700Z 2918/3018 02005KT 9999 SCT040 TX20/3014Z TN11/3006Z

Observaciones y pronósticos meteorológicos de más de 4000 aeropuertos (mensajes METAR y TAF).

Los puntos amarillos y rojos representan las estaciones disponibles.

Ponga el ratón en el punto deseado para ver el nombre de la estación.

Haga clic para ver las observaciones y los pronósticos meteorológicos.

Para cambiar el mapa : haga clic en los botones verdes con una cruz de color negro para hacer un zoom, en el botón verde con un guión para alejar o en las flechas verdes para mapas adyacentes.


METAR-TAF: